sensor_id;sensor_type;location;lat;lon;timestamp;P1;durP1;ratioP1;P2;durP2;ratioP2
54384;SDS011;40284;52.878;5.998;2022-12-18T00:01:38;87.57;;;39.85;;
54384;SDS011;40284;52.878;5.998;2022-12-18T00:04:05;82.97;;;39.03;;
54384;SDS011;40284;52.878;5.998;2022-12-18T00:06:33;83.05;;;36.95;;
54384;SDS011;40284;52.878;5.998;2022-12-18T00:09:00;85.25;;;38.30;;
54384;SDS011;40284;52.878;5.998;2022-12-18T00:11:28;90.13;;;36.15;;
54384;SDS011;40284;52.878;5.998;2022-12-18T00:13:54;93.25;;;39.28;;
54384;SDS011;40284;52.878;5.998;2022-12-18T00:16:21;91.05;;;39.45;;
54384;SDS011;40284;52.878;5.998;2022-12-18T00:18:48;83.50;;;37.55;;
54384;SDS011;40284;52.878;5.998;2022-12-18T00:21:15;81.93;;;36.40;;
54384;SDS011;40284;52.878;5.998;2022-12-18T00:23:42;82.80;;;33.85;;
54384;SDS011;40284;52.878;5.998;2022-12-18T00:26:16;89.63;;;38.28;;
54384;SDS011;40284;52.878;5.998;2022-12-18T00:28:42;87.43;;;37.40;;
54384;SDS011;40284;52.878;5.998;2022-12-18T00:31:17;80.95;;;36.15;;
54384;SDS011;40284;52.878;5.998;2022-12-18T00:33:43;79.65;;;35.45;;
54384;SDS011;40284;52.878;5.998;2022-12-18T00:36:10;82.32;;;35.33;;
54384;SDS011;40284;52.878;5.998;2022-12-18T00:38:37;78.97;;;35.47;;
54384;SDS011;40284;52.878;5.998;2022-12-18T00:41:03;77.95;;;34.03;;
54384;SDS011;40284;52.878;5.998;2022-12-18T00:43:29;84.32;;;36.78;;
54384;SDS011;40284;52.878;5.998;2022-12-18T00:45:58;82.85;;;36.58;;
54384;SDS011;40284;52.878;5.998;2022-12-18T00:48:25;81.57;;;34.55;;
54384;SDS011;40284;52.878;5.998;2022-12-18T00:50:51;83.07;;;35.55;;
54384;SDS011;40284;52.878;5.998;2022-12-18T00:53:17;87.75;;;37.08;;
54384;SDS011;40284;52.878;5.998;2022-12-18T00:55:44;101.35;;;37.55;;
54384;SDS011;40284;52.878;5.998;2022-12-18T00:58:11;90.57;;;38.92;;
54384;SDS011;40284;52.878;5.998;2022-12-18T01:00:37;88.55;;;37.22;;
54384;SDS011;40284;52.878;5.998;2022-12-18T01:03:04;101.10;;;42.55;;
54384;SDS011;40284;52.878;5.998;2022-12-18T01:05:30;96.35;;;38.55;;
54384;SDS011;40284;52.878;5.998;2022-12-18T01:07:56;94.07;;;37.55;;
54384;SDS011;40284;52.878;5.998;2022-12-18T01:10:23;77.75;;;35.92;;
54384;SDS011;40284;52.878;5.998;2022-12-18T01:12:50;81.55;;;35.47;;
54384;SDS011;40284;52.878;5.998;2022-12-18T01:15:16;85.88;;;36.65;;
54384;SDS011;40284;52.878;5.998;2022-12-18T01:17:42;89.70;;;36.75;;
54384;SDS011;40284;52.878;5.998;2022-12-18T01:20:09;91.22;;;38.45;;
54384;SDS011;40284;52.878;5.998;2022-12-18T01:22:35;89.18;;;34.70;;
54384;SDS011;40284;52.878;5.998;2022-12-18T01:25:02;81.30;;;36.20;;
54384;SDS011;40284;52.878;5.998;2022-12-18T01:27:29;84.82;;;35.30;;
54384;SDS011;40284;52.878;5.998;2022-12-18T01:29:55;92.95;;;35.83;;
54384;SDS011;40284;52.878;5.998;2022-12-18T01:32:21;77.75;;;35.75;;
54384;SDS011;40284;52.878;5.998;2022-12-18T01:34:47;89.20;;;36.15;;
54384;SDS011;40284;52.878;5.998;2022-12-18T01:37:13;88.35;;;37.30;;
54384;SDS011;40284;52.878;5.998;2022-12-18T01:39:39;85.20;;;36.45;;
54384;SDS011;40284;52.878;5.998;2022-12-18T01:42:13;91.18;;;36.28;;
54384;SDS011;40284;52.878;5.998;2022-12-18T01:50:00;85.35;;;35.30;;
54384;SDS011;40284;52.878;5.998;2022-12-18T01:52:28;87.90;;;36.47;;
54384;SDS011;40284;52.878;5.998;2022-12-18T01:54:54;86.05;;;37.33;;
54384;SDS011;40284;52.878;5.998;2022-12-18T01:57:21;83.43;;;35.95;;
54384;SDS011;40284;52.878;5.998;2022-12-18T01:59:49;97.53;;;40.20;;
54384;SDS011;40284;52.878;5.998;2022-12-18T02:02:16;82.97;;;36.90;;
54384;SDS011;40284;52.878;5.998;2022-12-18T02:04:43;90.05;;;39.85;;
54384;SDS011;40284;52.878;5.998;2022-12-18T02:09:38;83.45;;;39.60;;
54384;SDS011;40284;52.878;5.998;2022-12-18T02:22:20;89.82;;;41.42;;
54384;SDS011;40284;52.878;5.998;2022-12-18T02:24:59;83.28;;;36.55;;
54384;SDS011;40284;52.878;5.998;2022-12-18T02:27:27;96.97;;;41.25;;
54384;SDS011;40284;52.878;5.998;2022-12-18T02:29:54;96.55;;;40.63;;
54384;SDS011;40284;52.878;5.998;2022-12-18T02:32:24;85.05;;;39.28;;
54384;SDS011;40284;52.878;5.998;2022-12-18T02:34:51;97.85;;;40.58;;
54384;SDS011;40284;52.878;5.998;2022-12-18T02:37:19;92.78;;;41.42;;
54384;SDS011;40284;52.878;5.998;2022-12-18T02:39:47;88.53;;;37.83;;
54384;SDS011;40284;52.878;5.998;2022-12-18T02:42:14;95.32;;;40.75;;
54384;SDS011;40284;52.878;5.998;2022-12-18T02:44:44;94.50;;;38.85;;
54384;SDS011;40284;52.878;5.998;2022-12-18T02:47:11;90.60;;;39.35;;
54384;SDS011;40284;52.878;5.998;2022-12-18T02:52:31;88.38;;;38.58;;
54384;SDS011;40284;52.878;5.998;2022-12-18T02:57:35;86.55;;;38.03;;
54384;SDS011;40284;52.878;5.998;2022-12-18T03:02:30;88.90;;;37.78;;
54384;SDS011;40284;52.878;5.998;2022-12-18T03:07:33;88.25;;;36.60;;
54384;SDS011;40284;52.878;5.998;2022-12-18T03:10:00;90.43;;;37.08;;
54384;SDS011;40284;52.878;5.998;2022-12-18T03:12:34;79.40;;;35.88;;
54384;SDS011;40284;52.878;5.998;2022-12-18T03:15:08;77.68;;;35.38;;
54384;SDS011;40284;52.878;5.998;2022-12-18T03:17:35;79.05;;;33.55;;
54384;SDS011;40284;52.878;5.998;2022-12-18T03:20:07;83.63;;;35.28;;
54384;SDS011;40284;52.878;5.998;2022-12-18T03:22:34;86.80;;;38.00;;
54384;SDS011;40284;52.878;5.998;2022-12-18T03:25:02;81.68;;;37.83;;
54384;SDS011;40284;52.878;5.998;2022-12-18T03:27:28;90.13;;;36.50;;
54384;SDS011;40284;52.878;5.998;2022-12-18T03:29:57;85.97;;;36.78;;
54384;SDS011;40284;52.878;5.998;2022-12-18T03:32:33;73.32;;;36.80;;
54384;SDS011;40284;52.878;5.998;2022-12-18T03:35:02;81.65;;;35.90;;
54384;SDS011;40284;52.878;5.998;2022-12-18T03:37:29;80.28;;;35.40;;
54384;SDS011;40284;52.878;5.998;2022-12-18T03:39:55;75.95;;;35.05;;
54384;SDS011;40284;52.878;5.998;2022-12-18T03:44:56;70.65;;;31.90;;
54384;SDS011;40284;52.878;5.998;2022-12-18T03:50:13;60.60;;;29.67;;
54384;SDS011;40284;52.878;5.998;2022-12-18T03:55:07;68.90;;;30.92;;
54384;SDS011;40284;52.878;5.998;2022-12-18T03:57:35;63.33;;;29.30;;
54384;SDS011;40284;52.878;5.998;2022-12-18T04:00:05;59.53;;;29.33;;
54384;SDS011;40284;52.878;5.998;2022-12-18T04:02:31;66.68;;;31.08;;
54384;SDS011;40284;52.878;5.998;2022-12-18T04:04:59;59.28;;;28.98;;
54384;SDS011;40284;52.878;5.998;2022-12-18T04:07:26;63.97;;;29.05;;
54384;SDS011;40284;52.878;5.998;2022-12-18T04:09:53;61.78;;;29.90;;
54384;SDS011;40284;52.878;5.998;2022-12-18T04:12:21;63.25;;;29.25;;
54384;SDS011;40284;52.878;5.998;2022-12-18T04:14:50;64.43;;;31.20;;
54384;SDS011;40284;52.878;5.998;2022-12-18T04:17:16;63.63;;;30.33;;
54384;SDS011;40284;52.878;5.998;2022-12-18T04:19:42;64.63;;;29.33;;
54384;SDS011;40284;52.878;5.998;2022-12-18T04:22:09;62.03;;;28.70;;
54384;SDS011;40284;52.878;5.998;2022-12-18T04:24:35;56.47;;;30.10;;
54384;SDS011;40284;52.878;5.998;2022-12-18T04:27:01;60.83;;;27.90;;
54384;SDS011;40284;52.878;5.998;2022-12-18T04:29:27;60.95;;;26.85;;
54384;SDS011;40284;52.878;5.998;2022-12-18T04:31:53;63.47;;;29.80;;
54384;SDS011;40284;52.878;5.998;2022-12-18T04:34:20;62.20;;;28.90;;
54384;SDS011;40284;52.878;5.998;2022-12-18T04:36:46;59.08;;;27.85;;
54384;SDS011;40284;52.878;5.998;2022-12-18T04:39:12;61.00;;;27.42;;
54384;SDS011;40284;52.878;5.998;2022-12-18T04:41:38;59.47;;;27.70;;
54384;SDS011;40284;52.878;5.998;2022-12-18T04:44:04;63.92;;;28.42;;
54384;SDS011;40284;52.878;5.998;2022-12-18T04:46:30;67.88;;;27.90;;
54384;SDS011;40284;52.878;5.998;2022-12-18T04:48:56;63.17;;;29.20;;
54384;SDS011;40284;52.878;5.998;2022-12-18T04:51:22;59.17;;;28.58;;
54384;SDS011;40284;52.878;5.998;2022-12-18T04:53:48;54.38;;;26.98;;
54384;SDS011;40284;52.878;5.998;2022-12-18T04:56:14;60.95;;;27.30;;
54384;SDS011;40284;52.878;5.998;2022-12-18T04:58:41;56.85;;;25.95;;
54384;SDS011;40284;52.878;5.998;2022-12-18T05:01:08;59.38;;;27.10;;
54384;SDS011;40284;52.878;5.998;2022-12-18T05:03:34;56.38;;;26.27;;
54384;SDS011;40284;52.878;5.998;2022-12-18T05:06:01;57.75;;;29.35;;
54384;SDS011;40284;52.878;5.998;2022-12-18T05:08:27;58.78;;;26.67;;
54384;SDS011;40284;52.878;5.998;2022-12-18T05:13:25;57.35;;;26.70;;
54384;SDS011;40284;52.878;5.998;2022-12-18T05:15:52;51.60;;;24.40;;
54384;SDS011;40284;52.878;5.998;2022-12-18T05:18:18;55.67;;;25.80;;
54384;SDS011;40284;52.878;5.998;2022-12-18T05:20:44;60.75;;;26.45;;
54384;SDS011;40284;52.878;5.998;2022-12-18T05:23:10;55.60;;;26.05;;
54384;SDS011;40284;52.878;5.998;2022-12-18T05:25:36;55.90;;;25.13;;
54384;SDS011;40284;52.878;5.998;2022-12-18T05:28:02;55.10;;;26.33;;
54384;SDS011;40284;52.878;5.998;2022-12-18T05:30:28;47.08;;;24.67;;
54384;SDS011;40284;52.878;5.998;2022-12-18T05:32:54;55.30;;;25.60;;
54384;SDS011;40284;52.878;5.998;2022-12-18T05:35:21;52.85;;;24.77;;
54384;SDS011;40284;52.878;5.998;2022-12-18T05:37:47;51.00;;;24.45;;
54384;SDS011;40284;52.878;5.998;2022-12-18T05:40:13;57.80;;;25.35;;
54384;SDS011;40284;52.878;5.998;2022-12-18T05:42:39;50.92;;;25.42;;
54384;SDS011;40284;52.878;5.998;2022-12-18T05:45:05;57.80;;;25.60;;
54384;SDS011;40284;52.878;5.998;2022-12-18T05:47:31;51.42;;;25.42;;
54384;SDS011;40284;52.878;5.998;2022-12-18T05:49:57;46.92;;;24.00;;
54384;SDS011;40284;52.878;5.998;2022-12-18T05:52:23;48.45;;;22.48;;
54384;SDS011;40284;52.878;5.998;2022-12-18T05:54:49;47.78;;;23.92;;
54384;SDS011;40284;52.878;5.998;2022-12-18T05:57:15;49.38;;;23.45;;
54384;SDS011;40284;52.878;5.998;2022-12-18T05:59:42;52.13;;;22.70;;
54384;SDS011;40284;52.878;5.998;2022-12-18T06:02:08;48.83;;;23.38;;
54384;SDS011;40284;52.878;5.998;2022-12-18T06:04:34;49.33;;;22.73;;
54384;SDS011;40284;52.878;5.998;2022-12-18T06:07:00;47.72;;;24.33;;
54384;SDS011;40284;52.878;5.998;2022-12-18T06:09:26;58.45;;;25.20;;
54384;SDS011;40284;52.878;5.998;2022-12-18T06:11:52;48.30;;;22.75;;
54384;SDS011;40284;52.878;5.998;2022-12-18T06:14:18;41.58;;;20.73;;
54384;SDS011;40284;52.878;5.998;2022-12-18T06:16:44;45.97;;;23.10;;
54384;SDS011;40284;52.878;5.998;2022-12-18T06:19:13;48.22;;;22.50;;
54384;SDS011;40284;52.878;5.998;2022-12-18T06:21:39;45.05;;;21.17;;
54384;SDS011;40284;52.878;5.998;2022-12-18T06:24:06;42.80;;;21.80;;
54384;SDS011;40284;52.878;5.998;2022-12-18T06:26:32;40.03;;;20.05;;
54384;SDS011;40284;52.878;5.998;2022-12-18T06:28:58;46.53;;;21.25;;
54384;SDS011;40284;52.878;5.998;2022-12-18T06:31:24;47.50;;;20.80;;
54384;SDS011;40284;52.878;5.998;2022-12-18T06:33:50;47.28;;;21.52;;
54384;SDS011;40284;52.878;5.998;2022-12-18T06:36:17;46.75;;;21.70;;
54384;SDS011;40284;52.878;5.998;2022-12-18T06:38:43;48.78;;;21.70;;
54384;SDS011;40284;52.878;5.998;2022-12-18T06:41:10;42.53;;;20.65;;
54384;SDS011;40284;52.878;5.998;2022-12-18T06:43:36;42.20;;;20.45;;
54384;SDS011;40284;52.878;5.998;2022-12-18T06:46:03;47.13;;;22.60;;
54384;SDS011;40284;52.878;5.998;2022-12-18T06:48:29;47.20;;;20.38;;
54384;SDS011;40284;52.878;5.998;2022-12-18T06:50:56;35.80;;;20.45;;
54384;SDS011;40284;52.878;5.998;2022-12-18T06:53:22;40.30;;;20.55;;
54384;SDS011;40284;52.878;5.998;2022-12-18T06:55:48;34.95;;;19.48;;
54384;SDS011;40284;52.878;5.998;2022-12-18T06:58:14;41.58;;;20.30;;
54384;SDS011;40284;52.878;5.998;2022-12-18T07:00:40;38.85;;;19.90;;
54384;SDS011;40284;52.878;5.998;2022-12-18T07:03:06;40.53;;;22.00;;
54384;SDS011;40284;52.878;5.998;2022-12-18T07:05:33;44.40;;;19.80;;
54384;SDS011;40284;52.878;5.998;2022-12-18T07:07:59;42.25;;;19.98;;
54384;SDS011;40284;52.878;5.998;2022-12-18T07:10:25;38.45;;;19.10;;
54384;SDS011;40284;52.878;5.998;2022-12-18T07:12:51;40.15;;;19.48;;
54384;SDS011;40284;52.878;5.998;2022-12-18T07:15:17;42.30;;;19.25;;
54384;SDS011;40284;52.878;5.998;2022-12-18T07:17:43;36.38;;;18.73;;
54384;SDS011;40284;52.878;5.998;2022-12-18T07:20:09;42.63;;;18.90;;
54384;SDS011;40284;52.878;5.998;2022-12-18T07:22:35;37.63;;;17.50;;
54384;SDS011;40284;52.878;5.998;2022-12-18T07:25:02;37.72;;;18.67;;
54384;SDS011;40284;52.878;5.998;2022-12-18T07:27:28;40.80;;;19.55;;
54384;SDS011;40284;52.878;5.998;2022-12-18T07:29:54;34.70;;;17.83;;
54384;SDS011;40284;52.878;5.998;2022-12-18T07:32:20;38.88;;;18.40;;
54384;SDS011;40284;52.878;5.998;2022-12-18T07:34:46;33.17;;;19.48;;
54384;SDS011;40284;52.878;5.998;2022-12-18T07:37:12;39.92;;;18.73;;
54384;SDS011;40284;52.878;5.998;2022-12-18T07:39:38;35.17;;;18.63;;
54384;SDS011;40284;52.878;5.998;2022-12-18T07:42:04;33.47;;;18.50;;
54384;SDS011;40284;52.878;5.998;2022-12-18T07:44:49;33.88;;;18.10;;
54384;SDS011;40284;52.878;5.998;2022-12-18T07:47:15;32.10;;;17.40;;
54384;SDS011;40284;52.878;5.998;2022-12-18T07:49:41;32.25;;;17.83;;
54384;SDS011;40284;52.878;5.998;2022-12-18T07:52:07;32.80;;;16.77;;
54384;SDS011;40284;52.878;5.998;2022-12-18T07:54:34;38.80;;;18.67;;
54384;SDS011;40284;52.878;5.998;2022-12-18T07:57:00;38.38;;;18.42;;
54384;SDS011;40284;52.878;5.998;2022-12-18T07:59:26;37.95;;;18.17;;
54384;SDS011;40284;52.878;5.998;2022-12-18T08:01:52;36.05;;;19.35;;
54384;SDS011;40284;52.878;5.998;2022-12-18T08:04:18;31.23;;;17.25;;
54384;SDS011;40284;52.878;5.998;2022-12-18T08:06:44;32.80;;;17.55;;
54384;SDS011;40284;52.878;5.998;2022-12-18T08:09:10;37.13;;;18.35;;
54384;SDS011;40284;52.878;5.998;2022-12-18T08:11:37;33.90;;;17.50;;
54384;SDS011;40284;52.878;5.998;2022-12-18T08:14:03;33.65;;;17.45;;
54384;SDS011;40284;52.878;5.998;2022-12-18T08:16:29;40.30;;;18.20;;
54384;SDS011;40284;52.878;5.998;2022-12-18T08:18:55;35.83;;;17.23;;
54384;SDS011;40284;52.878;5.998;2022-12-18T08:21:25;35.78;;;17.50;;
54384;SDS011;40284;52.878;5.998;2022-12-18T08:23:53;35.05;;;17.77;;
54384;SDS011;40284;52.878;5.998;2022-12-18T08:26:20;33.08;;;17.30;;
54384;SDS011;40284;52.878;5.998;2022-12-18T08:28:48;32.83;;;16.88;;
54384;SDS011;40284;52.878;5.998;2022-12-18T08:31:14;38.50;;;18.55;;
54384;SDS011;40284;52.878;5.998;2022-12-18T08:33:41;33.35;;;17.40;;
54384;SDS011;40284;52.878;5.998;2022-12-18T08:36:08;32.28;;;16.75;;
54384;SDS011;40284;52.878;5.998;2022-12-18T08:38:34;38.72;;;18.83;;
54384;SDS011;40284;52.878;5.998;2022-12-18T08:41:01;33.90;;;17.63;;
54384;SDS011;40284;52.878;5.998;2022-12-18T08:43:27;32.17;;;17.17;;
54384;SDS011;40284;52.878;5.998;2022-12-18T08:46:12;37.83;;;18.05;;
54384;SDS011;40284;52.878;5.998;2022-12-18T08:48:38;31.58;;;16.33;;
54384;SDS011;40284;52.878;5.998;2022-12-18T08:51:04;32.50;;;17.02;;
54384;SDS011;40284;52.878;5.998;2022-12-18T08:53:30;32.47;;;15.77;;
54384;SDS011;40284;52.878;5.998;2022-12-18T08:55:56;30.73;;;15.93;;
54384;SDS011;40284;52.878;5.998;2022-12-18T08:58:23;30.30;;;15.10;;
54384;SDS011;40284;52.878;5.998;2022-12-18T09:00:49;27.70;;;15.20;;
54384;SDS011;40284;52.878;5.998;2022-12-18T09:03:16;32.90;;;14.98;;
54384;SDS011;40284;52.878;5.998;2022-12-18T09:05:45;28.75;;;16.67;;
54384;SDS011;40284;52.878;5.998;2022-12-18T09:08:11;28.42;;;15.35;;
54384;SDS011;40284;52.878;5.998;2022-12-18T09:10:42;27.17;;;15.40;;
54384;SDS011;40284;52.878;5.998;2022-12-18T09:13:09;27.40;;;15.10;;
54384;SDS011;40284;52.878;5.998;2022-12-18T09:15:40;28.90;;;16.23;;
54384;SDS011;40284;52.878;5.998;2022-12-18T09:18:06;24.73;;;14.90;;
54384;SDS011;40284;52.878;5.998;2022-12-18T09:20:33;25.33;;;14.38;;
54384;SDS011;40284;52.878;5.998;2022-12-18T09:22:59;24.40;;;14.45;;
54384;SDS011;40284;52.878;5.998;2022-12-18T09:25:25;25.13;;;13.52;;
54384;SDS011;40284;52.878;5.998;2022-12-18T09:27:56;23.10;;;13.65;;
54384;SDS011;40284;52.878;5.998;2022-12-18T09:30:22;26.25;;;12.95;;
54384;SDS011;40284;52.878;5.998;2022-12-18T09:32:49;27.02;;;14.35;;
54384;SDS011;40284;52.878;5.998;2022-12-18T09:35:15;21.98;;;13.60;;
54384;SDS011;40284;52.878;5.998;2022-12-18T09:37:41;19.80;;;12.20;;
54384;SDS011;40284;52.878;5.998;2022-12-18T09:40:12;24.05;;;12.80;;
54384;SDS011;40284;52.878;5.998;2022-12-18T09:42:39;23.33;;;12.82;;
54384;SDS011;40284;52.878;5.998;2022-12-18T09:45:07;22.52;;;11.82;;
54384;SDS011;40284;52.878;5.998;2022-12-18T09:47:37;26.83;;;13.77;;
54384;SDS011;40284;52.878;5.998;2022-12-18T09:50:06;21.02;;;12.35;;
54384;SDS011;40284;52.878;5.998;2022-12-18T09:52:41;24.42;;;13.32;;
54384;SDS011;40284;52.878;5.998;2022-12-18T09:55:14;20.95;;;12.23;;
54384;SDS011;40284;52.878;5.998;2022-12-18T09:57:45;21.88;;;12.05;;
54384;SDS011;40284;52.878;5.998;2022-12-18T10:00:18;18.90;;;10.90;;
54384;SDS011;40284;52.878;5.998;2022-12-18T10:02:45;19.80;;;12.07;;
54384;SDS011;40284;52.878;5.998;2022-12-18T10:05:12;19.83;;;11.55;;
54384;SDS011;40284;52.878;5.998;2022-12-18T10:13:02;18.20;;;10.77;;
54384;SDS011;40284;52.878;5.998;2022-12-18T10:17:58;18.05;;;11.30;;
54384;SDS011;40284;52.878;5.998;2022-12-18T10:20:43;23.13;;;11.05;;
54384;SDS011;40284;52.878;5.998;2022-12-18T10:23:19;20.90;;;11.20;;
54384;SDS011;40284;52.878;5.998;2022-12-18T10:25:55;19.13;;;10.65;;
54384;SDS011;40284;52.878;5.998;2022-12-18T10:28:23;16.30;;;10.15;;
54384;SDS011;40284;52.878;5.998;2022-12-18T10:30:50;18.92;;;11.25;;
54384;SDS011;40284;52.878;5.998;2022-12-18T10:33:17;16.05;;;9.60;;
54384;SDS011;40284;52.878;5.998;2022-12-18T10:35:44;19.15;;;11.30;;
54384;SDS011;40284;52.878;5.998;2022-12-18T10:41:00;15.73;;;9.93;;
54384;SDS011;40284;52.878;5.998;2022-12-18T10:43:33;18.52;;;11.43;;
54384;SDS011;40284;52.878;5.998;2022-12-18T10:46:01;16.50;;;9.57;;
54384;SDS011;40284;52.878;5.998;2022-12-18T10:48:28;17.92;;;9.63;;
54384;SDS011;40284;52.878;5.998;2022-12-18T10:50:55;14.18;;;8.48;;
54384;SDS011;40284;52.878;5.998;2022-12-18T10:53:39;15.02;;;9.85;;
54384;SDS011;40284;52.878;5.998;2022-12-18T10:56:06;12.70;;;8.05;;
54384;SDS011;40284;52.878;5.998;2022-12-18T10:58:36;15.25;;;9.20;;
54384;SDS011;40284;52.878;5.998;2022-12-18T11:01:04;12.23;;;8.73;;
54384;SDS011;40284;52.878;5.998;2022-12-18T11:06:07;15.45;;;8.93;;
54384;SDS011;40284;52.878;5.998;2022-12-18T11:08:33;13.93;;;8.98;;
54384;SDS011;40284;52.878;5.998;2022-12-18T11:10:59;15.82;;;9.48;;
54384;SDS011;40284;52.878;5.998;2022-12-18T11:13:26;14.20;;;8.95;;
54384;SDS011;40284;52.878;5.998;2022-12-18T11:15:53;13.23;;;8.70;;
54384;SDS011;40284;52.878;5.998;2022-12-18T11:20:56;13.00;;;8.73;;
54384;SDS011;40284;52.878;5.998;2022-12-18T11:23:23;13.82;;;8.00;;
54384;SDS011;40284;52.878;5.998;2022-12-18T11:25:50;11.95;;;8.10;;
54384;SDS011;40284;52.878;5.998;2022-12-18T11:28:27;15.45;;;8.65;;
54384;SDS011;40284;52.878;5.998;2022-12-18T11:33:40;16.52;;;8.75;;
54384;SDS011;40284;52.878;5.998;2022-12-18T11:36:07;12.65;;;7.93;;
54384;SDS011;40284;52.878;5.998;2022-12-18T11:38:36;16.27;;;8.60;;
54384;SDS011;40284;52.878;5.998;2022-12-18T11:41:18;13.80;;;8.15;;
54384;SDS011;40284;52.878;5.998;2022-12-18T11:43:49;13.60;;;8.05;;
54384;SDS011;40284;52.878;5.998;2022-12-18T11:46:23;13.82;;;8.60;;
54384;SDS011;40284;52.878;5.998;2022-12-18T11:51:37;15.73;;;8.20;;
54384;SDS011;40284;52.878;5.998;2022-12-18T11:54:12;13.68;;;7.97;;
54384;SDS011;40284;52.878;5.998;2022-12-18T11:59:26;13.05;;;8.00;;
54384;SDS011;40284;52.878;5.998;2022-12-18T12:01:58;14.52;;;9.00;;
54384;SDS011;40284;52.878;5.998;2022-12-18T12:09:43;12.57;;;8.82;;
54384;SDS011;40284;52.878;5.998;2022-12-18T12:17:29;13.90;;;8.68;;
54384;SDS011;40284;52.878;5.998;2022-12-18T12:35:51;14.38;;;9.20;;
54384;SDS011;40284;52.878;5.998;2022-12-18T12:38:23;13.30;;;8.43;;
54384;SDS011;40284;52.878;5.998;2022-12-18T12:40:52;14.57;;;8.73;;
54384;SDS011;40284;52.878;5.998;2022-12-18T12:46:13;21.08;;;13.52;;
54384;SDS011;40284;52.878;5.998;2022-12-18T12:48:43;24.00;;;13.75;;
54384;SDS011;40284;52.878;5.998;2022-12-18T12:51:15;19.10;;;11.45;;
54384;SDS011;40284;52.878;5.998;2022-12-18T12:53:42;19.02;;;10.48;;
54384;SDS011;40284;52.878;5.998;2022-12-18T12:56:09;15.60;;;9.80;;
54384;SDS011;40284;52.878;5.998;2022-12-18T13:06:05;14.30;;;8.40;;
54384;SDS011;40284;52.878;5.998;2022-12-18T13:08:51;12.45;;;7.93;;
54384;SDS011;40284;52.878;5.998;2022-12-18T13:11:28;13.07;;;7.90;;
54384;SDS011;40284;52.878;5.998;2022-12-18T13:14:20;12.57;;;8.18;;
54384;SDS011;40284;52.878;5.998;2022-12-18T13:16:46;12.18;;;8.18;;
54384;SDS011;40284;52.878;5.998;2022-12-18T13:19:21;13.27;;;7.38;;
54384;SDS011;40284;52.878;5.998;2022-12-18T13:21:52;11.50;;;7.38;;
54384;SDS011;40284;52.878;5.998;2022-12-18T13:24:26;14.43;;;8.90;;
54384;SDS011;40284;52.878;5.998;2022-12-18T13:26:52;12.57;;;7.70;;
54384;SDS011;40284;52.878;5.998;2022-12-18T13:32:10;12.30;;;7.15;;
54384;SDS011;40284;52.878;5.998;2022-12-18T13:34:44;12.25;;;7.95;;
54384;SDS011;40284;52.878;5.998;2022-12-18T13:39:55;12.10;;;7.22;;
54384;SDS011;40284;52.878;5.998;2022-12-18T13:47:56;11.48;;;7.40;;
54384;SDS011;40284;52.878;5.998;2022-12-18T13:50:23;11.07;;;7.00;;
54384;SDS011;40284;52.878;5.998;2022-12-18T13:52:50;13.80;;;8.30;;
54384;SDS011;40284;52.878;5.998;2022-12-18T13:55:18;10.93;;;7.70;;
54384;SDS011;40284;52.878;5.998;2022-12-18T13:57:44;11.63;;;7.30;;
54384;SDS011;40284;52.878;5.998;2022-12-18T14:02:44;11.60;;;7.13;;
54384;SDS011;40284;52.878;5.998;2022-12-18T14:05:27;10.25;;;7.00;;
54384;SDS011;40284;52.878;5.998;2022-12-18T14:07:53;14.23;;;7.30;;
54384;SDS011;40284;52.878;5.998;2022-12-18T14:10:20;11.27;;;7.05;;
54384;SDS011;40284;52.878;5.998;2022-12-18T14:12:47;11.27;;;7.03;;
54384;SDS011;40284;52.878;5.998;2022-12-18T14:18:02;10.45;;;6.55;;
54384;SDS011;40284;52.878;5.998;2022-12-18T14:20:32;9.20;;;6.10;;
54384;SDS011;40284;52.878;5.998;2022-12-18T14:22:58;12.50;;;8.23;;
54384;SDS011;40284;52.878;5.998;2022-12-18T14:25:26;11.13;;;6.97;;
54384;SDS011;40284;52.878;5.998;2022-12-18T14:27:57;11.57;;;7.05;;
54384;SDS011;40284;52.878;5.998;2022-12-18T14:30:31;9.68;;;7.10;;
54384;SDS011;40284;52.878;5.998;2022-12-18T14:35:30;12.57;;;6.00;;
54384;SDS011;40284;52.878;5.998;2022-12-18T14:43:21;9.10;;;6.40;;
54384;SDS011;40284;52.878;5.998;2022-12-18T14:45:47;9.88;;;5.38;;
54384;SDS011;40284;52.878;5.998;2022-12-18T14:48:19;10.45;;;6.70;;
54384;SDS011;40284;52.878;5.998;2022-12-18T14:50:45;12.32;;;6.80;;
54384;SDS011;40284;52.878;5.998;2022-12-18T14:53:20;10.80;;;6.20;;
54384;SDS011;40284;52.878;5.998;2022-12-18T14:55:47;10.18;;;6.05;;
54384;SDS011;40284;52.878;5.998;2022-12-18T14:58:14;13.30;;;7.30;;
54384;SDS011;40284;52.878;5.998;2022-12-18T15:00:41;12.77;;;7.22;;
54384;SDS011;40284;52.878;5.998;2022-12-18T15:03:07;9.13;;;6.30;;
54384;SDS011;40284;52.878;5.998;2022-12-18T15:05:34;11.02;;;6.20;;
54384;SDS011;40284;52.878;5.998;2022-12-18T15:08:01;9.13;;;5.82;;
54384;SDS011;40284;52.878;5.998;2022-12-18T15:10:34;12.25;;;5.95;;
54384;SDS011;40284;52.878;5.998;2022-12-18T15:18:11;9.57;;;6.25;;
54384;SDS011;40284;52.878;5.998;2022-12-18T15:25:42;12.60;;;7.40;;
54384;SDS011;40284;52.878;5.998;2022-12-18T15:28:19;8.65;;;6.15;;
54384;SDS011;40284;52.878;5.998;2022-12-18T15:31:01;11.25;;;6.93;;
54384;SDS011;40284;52.878;5.998;2022-12-18T15:33:32;15.30;;;9.02;;
54384;SDS011;40284;52.878;5.998;2022-12-18T15:36:00;13.32;;;7.60;;
54384;SDS011;40284;52.878;5.998;2022-12-18T15:38:26;13.90;;;6.90;;
54384;SDS011;40284;52.878;5.998;2022-12-18T15:40:53;11.82;;;6.95;;
54384;SDS011;40284;52.878;5.998;2022-12-18T15:43:22;17.27;;;10.65;;
54384;SDS011;40284;52.878;5.998;2022-12-18T15:45:59;24.67;;;12.40;;
54384;SDS011;40284;52.878;5.998;2022-12-18T15:48:25;16.08;;;8.75;;
54384;SDS011;40284;52.878;5.998;2022-12-18T15:50:51;17.85;;;10.98;;
54384;SDS011;40284;52.878;5.998;2022-12-18T15:53:18;12.63;;;7.32;;
54384;SDS011;40284;52.878;5.998;2022-12-18T15:55:44;14.00;;;6.38;;
54384;SDS011;40284;52.878;5.998;2022-12-18T15:58:29;9.40;;;6.53;;
54384;SDS011;40284;52.878;5.998;2022-12-18T16:00:55;15.77;;;6.88;;
54384;SDS011;40284;52.878;5.998;2022-12-18T16:03:25;10.75;;;6.13;;
54384;SDS011;40284;52.878;5.998;2022-12-18T16:05:51;9.05;;;6.30;;
54384;SDS011;40284;52.878;5.998;2022-12-18T16:08:17;11.55;;;7.25;;
54384;SDS011;40284;52.878;5.998;2022-12-18T16:10:43;9.13;;;5.80;;
54384;SDS011;40284;52.878;5.998;2022-12-18T16:13:13;10.07;;;6.18;;
54384;SDS011;40284;52.878;5.998;2022-12-18T16:15:41;12.15;;;6.28;;
54384;SDS011;40284;52.878;5.998;2022-12-18T16:18:07;9.73;;;6.38;;
54384;SDS011;40284;52.878;5.998;2022-12-18T16:20:33;9.20;;;7.05;;
54384;SDS011;40284;52.878;5.998;2022-12-18T16:22:59;12.27;;;7.55;;
54384;SDS011;40284;52.878;5.998;2022-12-18T16:25:27;9.75;;;6.97;;
54384;SDS011;40284;52.878;5.998;2022-12-18T16:27:53;12.40;;;6.75;;
54384;SDS011;40284;52.878;5.998;2022-12-18T16:30:23;11.82;;;6.78;;
54384;SDS011;40284;52.878;5.998;2022-12-18T16:32:52;10.45;;;6.30;;
54384;SDS011;40284;52.878;5.998;2022-12-18T16:35:18;9.82;;;6.03;;
54384;SDS011;40284;52.878;5.998;2022-12-18T16:37:44;11.02;;;6.13;;
54384;SDS011;40284;52.878;5.998;2022-12-18T16:40:11;9.57;;;5.82;;
54384;SDS011;40284;52.878;5.998;2022-12-18T16:42:38;9.65;;;6.60;;
54384;SDS011;40284;52.878;5.998;2022-12-18T16:45:05;9.85;;;6.30;;